createdAt,value
2018-07-26T00:01:58.832Z,23.30
2018-07-26T00:04:33.460Z,23.32
2018-07-26T00:07:08.448Z,23.32
2018-07-26T00:09:43.137Z,23.33
2018-07-26T00:12:17.852Z,23.35
2018-07-26T00:14:52.464Z,23.33
2018-07-26T00:17:27.340Z,23.33
2018-07-26T00:20:01.994Z,23.38
2018-07-26T00:22:36.852Z,23.38
2018-07-26T00:25:11.343Z,23.40
2018-07-26T00:27:45.924Z,23.42
2018-07-26T00:30:20.637Z,23.34
2018-07-26T00:32:55.544Z,23.26
2018-07-26T00:35:30.068Z,23.10
2018-07-26T00:38:04.768Z,22.93
2018-07-26T00:40:39.248Z,22.86
2018-07-26T00:43:13.777Z,22.74
2018-07-26T00:45:48.288Z,22.76
2018-07-26T00:48:23.204Z,22.76
2018-07-26T00:50:57.666Z,22.74
2018-07-26T00:53:32.195Z,22.67
2018-07-26T00:56:06.993Z,22.57
2018-07-26T00:58:41.652Z,22.57
2018-07-26T01:01:16.335Z,22.54
2018-07-26T01:03:50.780Z,22.54
2018-07-26T01:06:25.252Z,22.49
2018-07-26T01:08:59.624Z,22.41
2018-07-26T01:11:34.024Z,22.55
2018-07-26T01:14:19.098Z,22.71
2018-07-26T01:16:53.569Z,22.77
2018-07-26T01:19:28.272Z,22.85
2018-07-26T01:22:02.744Z,22.84
2018-07-26T01:24:37.448Z,22.70
2018-07-26T01:27:12.071Z,22.68
2018-07-26T01:29:59.937Z,22.56
2018-07-26T01:32:34.365Z,22.48
2018-07-26T01:35:27.848Z,22.44
2018-07-26T01:38:05.738Z,22.35
2018-07-26T01:40:39.967Z,22.34
2018-07-26T01:43:24.559Z,22.18
2018-07-26T01:45:58.969Z,22.05
2018-07-26T01:48:46.461Z,21.94
2018-07-26T01:54:19.877Z,21.81
2018-07-26T01:56:54.255Z,21.69
2018-07-26T01:59:28.695Z,21.62
2018-07-26T02:02:03.115Z,21.64
2018-07-26T02:04:37.495Z,21.62
2018-07-26T02:07:11.876Z,21.65
2018-07-26T02:09:46.251Z,21.63
2018-07-26T02:12:21.255Z,21.61
2018-07-26T02:14:55.672Z,21.70
2018-07-26T02:17:29.948Z,21.83
2018-07-26T02:20:04.548Z,21.86
2018-07-26T02:22:38.955Z,21.92
2018-07-26T02:25:18.567Z,22.10
2018-07-26T02:27:58.519Z,22.17
2018-07-26T02:30:32.912Z,22.20
2018-07-26T02:33:07.483Z,22.19
2018-07-26T02:35:41.847Z,22.15
2018-07-26T02:38:16.172Z,22.18
2018-07-26T02:40:50.800Z,22.30
2018-07-26T02:43:25.103Z,22.41
2018-07-26T02:46:04.888Z,22.38
2018-07-26T02:48:39.502Z,22.41
2018-07-26T02:51:13.887Z,22.42
2018-07-26T02:53:48.314Z,22.48
2018-07-26T02:56:22.792Z,22.48
2018-07-26T02:58:57.071Z,22.58
2018-07-26T03:01:31.407Z,22.64
2018-07-26T03:04:06.052Z,22.68
2018-07-26T03:06:40.424Z,22.66
2018-07-26T03:09:14.724Z,22.71
2018-07-26T03:11:49.141Z,22.69
2018-07-26T03:14:23.599Z,22.66
2018-07-26T03:16:58.040Z,22.59
2018-07-26T03:19:32.465Z,22.48
2018-07-26T03:22:07.184Z,22.36
2018-07-26T03:24:41.753Z,22.26
2018-07-26T03:27:16.229Z,22.12
2018-07-26T03:29:50.653Z,22.06
2018-07-26T03:32:25.293Z,22.01
2018-07-26T03:34:59.896Z,21.97
2018-07-26T03:37:34.589Z,21.89
2018-07-26T03:40:09.189Z,21.82
2018-07-26T03:42:43.825Z,21.68
2018-07-26T03:45:18.332Z,21.57
2018-07-26T03:47:52.957Z,21.45
2018-07-26T03:50:27.310Z,21.31
2018-07-26T03:53:01.997Z,21.21
2018-07-26T03:55:36.484Z,21.11
2018-07-26T03:58:21.451Z,21.00
2018-07-26T04:00:56.112Z,20.93
2018-07-26T04:03:30.734Z,20.87
2018-07-26T04:06:05.312Z,20.89
2018-07-26T04:08:39.956Z,20.97
2018-07-26T04:11:14.547Z,21.13
2018-07-26T04:13:49.193Z,21.32
2018-07-26T04:16:23.928Z,21.66
2018-07-26T04:18:58.500Z,21.69
2018-07-26T04:21:32.940Z,21.74
2018-07-26T04:24:07.565Z,21.87
2018-07-26T04:26:42.165Z,21.96
2018-07-26T04:29:16.840Z,22.14
2018-07-26T04:31:51.325Z,22.26
2018-07-26T04:34:25.948Z,22.36
2018-07-26T04:37:00.659Z,22.38
2018-07-26T04:39:35.292Z,22.44
2018-07-26T04:42:09.821Z,22.37
2018-07-26T04:44:44.213Z,22.45
2018-07-26T04:47:18.721Z,22.48
2018-07-26T04:49:53.441Z,22.46
2018-07-26T04:52:28.043Z,22.47
2018-07-26T04:55:03.071Z,22.46
2018-07-26T04:57:37.690Z,22.50
2018-07-26T05:00:12.375Z,22.60
2018-07-26T05:02:47.128Z,22.71
2018-07-26T05:05:21.654Z,22.88
2018-07-26T05:07:56.275Z,23.11
2018-07-26T05:10:30.749Z,23.34
2018-07-26T05:13:06.357Z,23.53
2018-07-26T05:15:41.097Z,23.84
2018-07-26T05:18:15.855Z,23.99
2018-07-26T05:20:50.295Z,24.11
2018-07-26T05:23:24.956Z,24.22
2018-07-26T05:25:59.420Z,24.32
2018-07-26T05:28:33.860Z,24.44
2018-07-26T05:31:08.437Z,24.63
2018-07-26T05:33:42.916Z,24.85
2018-07-26T05:36:17.503Z,24.99
2018-07-26T05:38:58.497Z,25.21
2018-07-26T05:41:51.668Z,25.32
2018-07-26T05:44:26.128Z,25.59
2018-07-26T05:47:00.522Z,25.74
2018-07-26T05:49:35.100Z,25.87
2018-07-26T05:52:09.589Z,26.08
2018-07-26T05:54:44.045Z,26.22
2018-07-26T05:57:18.580Z,26.38
2018-07-26T05:59:53.057Z,26.56
2018-07-26T06:02:27.545Z,26.73
2018-07-26T06:05:02.001Z,26.86
2018-07-26T06:07:36.911Z,27.05
2018-07-26T06:10:11.540Z,27.07
2018-07-26T06:12:46.096Z,27.11
2018-07-26T06:15:20.700Z,27.19
2018-07-26T06:17:55.187Z,27.33
2018-07-26T06:20:29.669Z,27.46
2018-07-26T06:23:04.205Z,27.59
2018-07-26T06:25:38.735Z,27.67
2018-07-26T06:28:13.358Z,27.82
2018-07-26T06:30:47.777Z,28.96
2018-07-26T06:33:22.413Z,30.99
2018-07-26T06:35:56.989Z,32.92
2018-07-26T06:38:31.507Z,34.89
2018-07-26T06:41:06.093Z,36.00
2018-07-26T06:43:40.677Z,37.53
2018-07-26T06:46:15.220Z,38.47
2018-07-26T06:48:49.588Z,38.81
2018-07-26T06:51:24.063Z,38.88
2018-07-26T06:53:58.724Z,39.87
2018-07-26T06:56:33.461Z,40.08
2018-07-26T06:59:07.960Z,40.31
2018-07-26T07:01:42.336Z,38.52
2018-07-26T07:04:16.726Z,38.87
2018-07-26T07:06:51.126Z,39.48
2018-07-26T07:09:25.720Z,39.65
2018-07-26T07:12:00.182Z,39.86
2018-07-26T07:14:34.685Z,38.86
2018-07-26T07:17:09.107Z,38.05
2018-07-26T07:19:43.744Z,38.95
2018-07-26T07:22:18.478Z,39.71
2018-07-26T07:24:53.136Z,39.33
2018-07-26T07:27:27.687Z,40.92
2018-07-26T07:30:02.107Z,39.41
2018-07-26T07:32:36.600Z,40.45
2018-07-26T07:35:11.346Z,39.72
2018-07-26T07:37:46.069Z,41.07
2018-07-26T07:40:20.689Z,41.52
2018-07-26T07:42:55.409Z,41.60
2018-07-26T07:45:30.005Z,41.66
2018-07-26T07:48:04.590Z,42.58
2018-07-26T07:50:39.228Z,41.83
2018-07-26T07:53:13.869Z,42.54
2018-07-26T07:55:48.620Z,42.93
2018-07-26T07:58:23.223Z,42.91
2018-07-26T08:00:57.990Z,43.08
2018-07-26T08:03:32.604Z,42.14
2018-07-26T08:06:07.000Z,42.43
2018-07-26T08:08:41.717Z,42.54
2018-07-26T08:11:16.424Z,43.44
2018-07-26T08:13:50.776Z,43.47
2018-07-26T08:16:25.448Z,43.22
2018-07-26T08:18:59.924Z,43.38
2018-07-26T08:21:34.456Z,44.12
2018-07-26T08:24:08.832Z,43.74
2018-07-26T08:26:43.233Z,44.18
2018-07-26T08:29:17.597Z,45.41
2018-07-26T08:31:51.993Z,44.63
2018-07-26T08:34:26.388Z,43.37
2018-07-26T08:37:00.854Z,43.48
2018-07-26T08:39:36.863Z,45.31
2018-07-26T08:42:11.137Z,44.53
2018-07-26T08:44:45.588Z,46.32
2018-07-26T08:47:20.081Z,45.53
2018-07-26T08:52:58.954Z,46.49
2018-07-26T08:55:45.780Z,46.14
2018-07-26T09:01:20.845Z,46.60
2018-07-26T09:03:56.576Z,46.39
2018-07-26T09:06:33.116Z,46.61
2018-07-26T09:09:09.992Z,46.05
2018-07-26T09:11:54.021Z,44.44
2018-07-26T09:14:28.447Z,44.04
2018-07-26T09:17:02.800Z,45.59
2018-07-26T09:19:37.415Z,45.70
2018-07-26T09:22:12.528Z,45.82
2018-07-26T09:24:46.925Z,43.10
2018-07-26T09:27:21.349Z,45.01
2018-07-26T09:29:56.144Z,45.80
2018-07-26T09:32:30.688Z,44.95
2018-07-26T09:35:10.120Z,45.22
2018-07-26T09:37:45.204Z,44.70
2018-07-26T09:40:19.720Z,44.28
2018-07-26T09:48:52.770Z,46.16
2018-07-26T09:51:27.643Z,46.38
2018-07-26T09:54:08.129Z,45.34
2018-07-26T09:56:50.863Z,44.70
2018-07-26T09:59:25.447Z,45.23
2018-07-26T10:02:18.427Z,45.94
2018-07-26T10:04:53.019Z,45.82
2018-07-26T10:07:28.842Z,45.87
2018-07-26T10:10:07.033Z,46.43
2018-07-26T10:12:43.351Z,47.63
2018-07-26T10:15:18.497Z,45.39
2018-07-26T10:17:58.681Z,47.15
2018-07-26T10:20:36.444Z,44.38
2018-07-26T10:23:22.900Z,45.87
2018-07-26T10:25:57.548Z,45.98
2018-07-26T10:28:32.024Z,46.07
2018-07-26T10:31:07.496Z,45.71
2018-07-26T10:33:50.952Z,43.00
2018-07-26T10:36:31.489Z,44.84
2018-07-26T10:39:08.147Z,47.15
2018-07-26T10:41:42.480Z,45.12
2018-07-26T10:44:16.980Z,46.97
2018-07-26T10:46:51.596Z,45.06
2018-07-26T10:49:26.111Z,47.50
2018-07-26T10:52:00.882Z,46.00
2018-07-26T10:54:35.379Z,45.13
2018-07-26T10:57:09.914Z,45.00
2018-07-26T10:59:44.432Z,41.72
2018-07-26T11:02:20.869Z,43.20
2018-07-26T11:05:09.515Z,43.40
2018-07-26T11:07:44.501Z,42.50
2018-07-26T11:10:19.072Z,45.60
2018-07-26T11:12:54.287Z,42.33
2018-07-26T11:15:31.981Z,39.99
2018-07-26T11:18:06.725Z,42.25
2018-07-26T11:20:45.876Z,43.58
2018-07-26T11:23:20.633Z,44.27
2018-07-26T11:25:55.073Z,44.83
2018-07-26T11:28:29.592Z,41.94
2018-07-26T11:31:17.831Z,42.19
2018-07-26T11:33:52.312Z,41.38
2018-07-26T11:36:26.663Z,41.54
2018-07-26T11:39:00.933Z,42.26
2018-07-26T11:41:35.342Z,40.63
2018-07-26T11:44:09.807Z,40.70
2018-07-26T11:46:45.157Z,40.35
2018-07-26T11:49:19.695Z,39.17
2018-07-26T11:51:54.135Z,37.55
2018-07-26T11:54:28.443Z,36.74
2018-07-26T11:57:02.838Z,36.16
2018-07-26T11:59:37.207Z,35.73
2018-07-26T12:02:13.479Z,35.04
2018-07-26T12:04:52.188Z,35.38
2018-07-26T12:07:26.662Z,34.84
2018-07-26T12:10:01.067Z,35.18
2018-07-26T12:12:35.412Z,35.55
2018-07-26T12:15:10.135Z,35.86
2018-07-26T12:17:44.642Z,35.63
2018-07-26T12:20:18.959Z,35.89
2018-07-26T12:22:53.369Z,35.38
2018-07-26T12:25:27.623Z,35.55
2018-07-26T12:28:02.072Z,36.26
2018-07-26T12:30:38.376Z,36.48
2018-07-26T12:33:12.976Z,36.61
2018-07-26T12:36:05.953Z,35.89
2018-07-26T12:38:40.301Z,35.73
2018-07-26T12:41:20.333Z,35.67
2018-07-26T12:44:18.899Z,36.17
2018-07-26T12:46:53.249Z,36.44
2018-07-26T12:49:27.802Z,36.07
2018-07-26T12:52:02.098Z,36.03
2018-07-26T12:54:38.236Z,35.82
2018-07-26T12:57:13.224Z,35.77
2018-07-26T12:59:47.956Z,35.26
2018-07-26T13:02:22.509Z,35.36
2018-07-26T13:04:57.337Z,35.35
2018-07-26T13:07:31.600Z,35.31
2018-07-26T13:10:06.175Z,35.34
2018-07-26T13:12:40.518Z,35.30
2018-07-26T13:15:14.940Z,35.36
2018-07-26T13:17:49.259Z,35.08
2018-07-26T13:20:23.503Z,35.26
2018-07-26T13:22:57.763Z,35.22
2018-07-26T13:25:32.176Z,35.15
2018-07-26T13:28:06.597Z,34.90
2018-07-26T13:30:40.865Z,34.80
2018-07-26T13:33:15.404Z,34.84
2018-07-26T13:35:50.051Z,34.71
2018-07-26T13:38:24.275Z,35.05
2018-07-26T13:41:09.208Z,35.25
2018-07-26T13:43:49.928Z,35.52
2018-07-26T13:46:24.377Z,35.66
2018-07-26T13:52:04.751Z,35.53
2018-07-26T13:54:44.340Z,35.73
2018-07-26T13:57:21.067Z,35.75
2018-07-26T13:59:55.494Z,35.39
2018-07-26T14:02:29.835Z,35.31
2018-07-26T14:05:04.469Z,35.16
2018-07-26T14:07:38.812Z,34.93
2018-07-26T14:10:13.248Z,34.86
2018-07-26T14:12:47.471Z,34.90
2018-07-26T14:15:21.944Z,34.88
2018-07-26T14:17:56.279Z,34.63
2018-07-26T14:20:30.712Z,34.59
2018-07-26T14:23:05.045Z,34.94
2018-07-26T14:25:39.504Z,35.45
2018-07-26T14:28:13.776Z,35.84
2018-07-26T14:30:48.472Z,36.05
2018-07-26T14:33:22.844Z,37.44
2018-07-26T14:35:57.376Z,38.29
2018-07-26T14:38:31.758Z,39.26
2018-07-26T14:41:06.183Z,37.51
2018-07-26T14:43:40.737Z,36.90
2018-07-26T14:46:15.038Z,36.18
2018-07-26T14:48:49.371Z,35.46
2018-07-26T14:51:23.804Z,34.86
2018-07-26T14:53:58.291Z,34.42
2018-07-26T14:56:32.621Z,34.30
2018-07-26T14:59:06.983Z,34.09
2018-07-26T15:01:41.407Z,34.13
2018-07-26T15:04:15.814Z,33.99
2018-07-26T15:06:50.191Z,33.88
2018-07-26T15:09:24.599Z,33.89
2018-07-26T15:11:59.103Z,33.97
2018-07-26T15:14:33.596Z,34.02
2018-07-26T15:17:08.051Z,33.97
2018-07-26T15:19:42.473Z,34.05
2018-07-26T15:22:16.695Z,33.80
2018-07-26T15:24:51.142Z,33.69
2018-07-26T15:27:25.502Z,33.54
2018-07-26T15:29:59.943Z,33.57
2018-07-26T15:32:34.334Z,33.48
2018-07-26T15:35:08.786Z,33.47
2018-07-26T15:37:43.240Z,33.56
2018-07-26T15:40:17.987Z,33.33
2018-07-26T15:42:52.468Z,33.39
2018-07-26T15:45:26.891Z,33.35
2018-07-26T15:48:01.316Z,33.39
2018-07-26T15:50:36.187Z,33.29
2018-07-26T15:53:10.591Z,33.35
2018-07-26T15:55:44.924Z,33.31
2018-07-26T15:58:19.311Z,33.26
2018-07-26T16:00:53.597Z,33.29
2018-07-26T16:03:28.241Z,33.30
2018-07-26T16:06:02.599Z,33.43
2018-07-26T16:08:36.933Z,33.42
2018-07-26T16:11:11.455Z,33.32
2018-07-26T16:13:49.407Z,33.31
2018-07-26T16:16:23.848Z,33.43
2018-07-26T16:19:04.004Z,33.41
2018-07-26T16:21:38.711Z,33.49
2018-07-26T16:24:13.020Z,33.55
2018-07-26T16:26:47.407Z,33.65
2018-07-26T16:29:21.863Z,33.72
2018-07-26T16:31:56.313Z,33.79
2018-07-26T16:34:30.692Z,33.90
2018-07-26T16:37:05.100Z,33.78
2018-07-26T16:39:39.743Z,33.83
2018-07-26T16:42:14.134Z,33.91
2018-07-26T16:44:48.520Z,33.82
2018-07-26T16:47:22.945Z,33.83
2018-07-26T16:49:57.582Z,33.78
2018-07-26T16:52:31.971Z,33.49
2018-07-26T16:55:06.622Z,33.65
2018-07-26T16:57:41.177Z,33.72
2018-07-26T17:00:15.545Z,33.76
2018-07-26T17:02:49.996Z,33.62
2018-07-26T17:05:24.368Z,33.66
2018-07-26T17:07:58.779Z,33.52
2018-07-26T17:10:36.915Z,33.55
2018-07-26T17:13:11.069Z,33.54
2018-07-26T17:15:47.393Z,33.64
2018-07-26T17:18:21.678Z,33.67
2018-07-26T17:20:57.170Z,33.42
2018-07-26T17:26:30.976Z,33.09
2018-07-26T17:29:05.454Z,32.85
2018-07-26T17:31:39.755Z,32.54
2018-07-26T17:34:14.215Z,32.34
2018-07-26T17:37:00.696Z,32.12
2018-07-26T17:39:38.569Z,32.05
2018-07-26T17:42:31.784Z,31.79
2018-07-26T17:45:08.199Z,31.71
2018-07-26T17:47:42.475Z,31.54
2018-07-26T17:50:16.963Z,31.67
2018-07-26T17:52:51.252Z,31.78
2018-07-26T17:55:25.555Z,31.64
2018-07-26T17:57:59.992Z,31.53
2018-07-26T18:00:34.507Z,31.47
2018-07-26T18:03:08.947Z,31.31
2018-07-26T18:05:43.203Z,31.36
2018-07-26T18:08:17.859Z,31.32
2018-07-26T18:10:52.540Z,31.26
2018-07-26T18:13:26.873Z,31.28
2018-07-26T18:16:01.335Z,31.17
2018-07-26T18:18:35.692Z,30.98
2018-07-26T18:21:10.011Z,30.97
2018-07-26T18:23:44.408Z,30.91
2018-07-26T18:26:18.825Z,30.93
2018-07-26T18:28:53.456Z,30.83
2018-07-26T18:31:27.952Z,30.61
2018-07-26T18:34:02.317Z,30.55
2018-07-26T18:36:36.736Z,30.53
2018-07-26T18:39:12.807Z,30.35
2018-07-26T18:41:47.276Z,30.12
2018-07-26T18:44:21.668Z,30.04
2018-07-26T18:46:56.040Z,30.04
2018-07-26T18:49:30.579Z,30.17
2018-07-26T18:52:05.083Z,30.11
2018-07-26T18:54:39.480Z,29.96
2018-07-26T18:57:13.943Z,29.91
2018-07-26T18:59:48.398Z,29.88
2018-07-26T19:02:22.696Z,29.74
2018-07-26T19:04:57.037Z,29.82
2018-07-26T19:07:31.416Z,29.62
2018-07-26T19:10:07.504Z,29.37
2018-07-26T19:12:42.007Z,29.11
2018-07-26T19:15:16.435Z,28.97
2018-07-26T19:17:50.688Z,28.98
2018-07-26T19:20:24.996Z,28.86
2018-07-26T19:22:59.279Z,28.80
2018-07-26T19:25:33.552Z,28.71
2018-07-26T19:28:07.944Z,28.59
2018-07-26T19:30:42.508Z,28.60
2018-07-26T19:33:16.824Z,28.51
2018-07-26T19:35:51.111Z,28.25
2018-07-26T19:38:25.826Z,28.25
2018-07-26T19:41:00.208Z,28.37
2018-07-26T19:43:34.627Z,28.42
2018-07-26T19:46:09.096Z,28.71
2018-07-26T19:48:43.488Z,28.58
2018-07-26T19:51:17.780Z,28.59
2018-07-26T19:53:52.273Z,28.42
2018-07-26T19:56:26.524Z,28.56
2018-07-26T19:59:00.963Z,28.59
2018-07-26T20:01:35.307Z,28.63
2018-07-26T20:04:09.787Z,28.58
2018-07-26T20:06:44.227Z,28.56
2018-07-26T20:09:18.611Z,28.50
2018-07-26T20:11:53.063Z,28.37
2018-07-26T20:14:27.355Z,28.32
2018-07-26T20:17:01.852Z,28.15
2018-07-26T20:19:36.172Z,28.05
2018-07-26T20:22:10.645Z,27.97
2018-07-26T20:24:45.065Z,27.96
2018-07-26T20:27:19.615Z,27.91
2018-07-26T20:29:54.083Z,27.88
2018-07-26T20:32:28.676Z,27.70
2018-07-26T20:35:02.960Z,27.66
2018-07-26T20:37:37.340Z,27.61
2018-07-26T20:40:12.154Z,27.58
2018-07-26T20:42:46.704Z,27.44
2018-07-26T20:45:20.902Z,27.40
2018-07-26T20:47:55.675Z,27.41
2018-07-26T20:50:29.955Z,27.27
2018-07-26T20:53:04.248Z,27.15
2018-07-26T20:55:38.648Z,27.01
2018-07-26T20:58:13.083Z,26.90
2018-07-26T21:00:47.576Z,27.00
2018-07-26T21:03:21.988Z,26.97
2018-07-26T21:05:56.435Z,26.89
2018-07-26T21:08:31.015Z,26.85
2018-07-26T21:11:05.712Z,26.87
2018-07-26T21:13:40.237Z,26.89
2018-07-26T21:16:14.615Z,26.76
2018-07-26T21:18:49.090Z,26.63
2018-07-26T21:21:23.524Z,26.46
2018-07-26T21:23:57.895Z,26.42
2018-07-26T21:26:32.250Z,26.40
2018-07-26T21:29:06.459Z,26.39
2018-07-26T21:31:40.866Z,26.31
2018-07-26T21:34:15.267Z,26.36
2018-07-26T21:36:49.659Z,26.41
2018-07-26T21:39:24.056Z,26.28
2018-07-26T21:41:58.313Z,26.19
2018-07-26T21:44:32.707Z,26.06
2018-07-26T21:47:06.943Z,26.06
2018-07-26T21:49:41.388Z,25.99
2018-07-26T21:52:15.704Z,26.06
2018-07-26T21:54:50.004Z,26.15
2018-07-26T21:57:24.403Z,26.15
2018-07-26T21:59:58.848Z,26.14
2018-07-26T22:02:33.361Z,26.12
2018-07-26T22:05:07.820Z,26.17
2018-07-26T22:07:42.383Z,26.15
2018-07-26T22:10:16.775Z,26.14
2018-07-26T22:12:51.056Z,26.14
2018-07-26T22:15:25.488Z,25.97
2018-07-26T22:17:59.779Z,26.00
2018-07-26T22:20:34.238Z,26.06
2018-07-26T22:23:08.666Z,25.93
2018-07-26T22:25:47.620Z,25.87
2018-07-26T22:28:21.895Z,25.96
2018-07-26T22:30:56.199Z,25.91
2018-07-26T22:33:37.135Z,25.88
2018-07-26T22:36:11.408Z,25.88
2018-07-26T22:38:45.804Z,25.77
2018-07-26T22:41:20.222Z,25.75
2018-07-26T22:43:54.639Z,25.78
2018-07-26T22:46:28.978Z,25.75
2018-07-26T22:49:03.640Z,25.69
2018-07-26T22:51:37.943Z,25.66
2018-07-26T22:54:12.268Z,25.64
2018-07-26T22:56:46.539Z,25.58
2018-07-26T22:59:20.971Z,25.49
2018-07-26T23:01:55.368Z,25.46
2018-07-26T23:04:29.639Z,25.50
2018-07-26T23:07:04.273Z,25.52
2018-07-26T23:09:38.555Z,25.60
2018-07-26T23:12:12.962Z,25.47
2018-07-26T23:14:47.341Z,25.50
2018-07-26T23:17:21.883Z,25.51
2018-07-26T23:19:56.200Z,25.34
2018-07-26T23:22:30.484Z,25.17
2018-07-26T23:25:05.675Z,25.22
2018-07-26T23:27:40.779Z,25.20
2018-07-26T23:30:15.047Z,25.23
2018-07-26T23:32:49.412Z,25.22
2018-07-26T23:35:23.815Z,25.17
2018-07-26T23:37:58.257Z,25.19
2018-07-26T23:40:32.687Z,25.37
2018-07-26T23:43:07.284Z,25.30
2018-07-26T23:45:41.620Z,25.26
2018-07-26T23:48:16.563Z,25.32
2018-07-26T23:50:50.950Z,25.47
2018-07-26T23:53:25.340Z,25.54
2018-07-26T23:56:12.296Z,25.48
2018-07-26T23:58:46.688Z,25.43
